Aérodrome :
LOGIN :

S'inscrire | Disclaimer

   EN    FR    IT 

 










Légende :    VFR   VFR Marginal   IFR   IFR Intensif   IFR Très Intensif
Visi : 
Plafond : 
>= 8 km
>= 3000ft
5 à 8 km
1000 à 3000 ft
1500m à 5 km
500 à 1000 ft
800 à 1500m
200 à 500 ft
< 800m
< 200 ft
Symboles :   Orages  Brouillard  Fortes neiges  Fortes précipitations  Vent > 20 kt
SIGMETs :   Divers  Orages  Givrage  Turbulence  Onde Orograph.  Cendres Volcan.






- Altitude de l'aérodrome : 194 ft
- Code IATA : LME


LFRM - Le Mans

DERNIER METAR :
  • 141400Z AUTO 10005KT 070V140 9999 SCT046 07/04 Q0997 TEMPO BKN013

METARs EXPIRÉS :
  • 141330Z AUTO 11006KT 080V140 9999 FEW047 08/04 Q0997 TEMPO BKN013
  • 141300Z AUTO VRB03KT 9999 FEW023 SCT032 09/03 Q0996 TEMPO BKN013
  • 141230Z AUTO VRB03KT 9999 BKN017 08/04 Q0997 NOSIG
  • 141200Z AUTO VRB03KT 9999 BKN019 08/04 Q0997 NOSIG
  • 141130Z AUTO VRB01KT 9999 BKN013 07/04 Q0997 BECMG NSC

TAF AMD TAF LFRM
Valide du 14 à 12h jusqu'au 15 à 12h UTC


141238Z 1412/1512 VRB03KT 9999 BKN017
TEMPO 1412/1415 BKN013
BECMG 1500/1503 2000 BR OVC003
PROB30
TEMPO 1503/1508 0300 FG VV///
BECMG 1509/1512 8000 NSW BKN005



MET'MAP, la Météo Aéronautique d'un coup d'oeil ! - Copyright ORBIFLY Décembre 2007 - Disclaimer

ORBIFLY MET'MAP TEAM :

Programmation & Développement : Alexandra Zaïnal
Conception & Développement : Baudouin d'Aumeries
Co-Programmation & Développement : Marc-Olivier Méhu
Soutien technique & logistique : Manuel Goepfert

Contact : metmap@orbifly.com




SOURCES & CREDITS :

   NOAA